Time,TemperatureF,DewpointF,PressureIn,WindDirection,WindDirectionDegrees,WindSpeedMPH,WindSpeedGustMPH,Humidity,HourlyPrecipIn,Conditions,Clouds,dailyrainin,SoftwareType,DateUTC
2013-04-30 00:01:00,60.8,57.5,29.83,NNE,17,0.0,0.0,89,0.00,,,0.00,VWS V13.01,2013-04-30 05:01:00,
2013-04-30 00:06:00,60.4,57.5,29.83,NNE,28,0.0,0.0,90,0.00,,,0.00,VWS V13.01,2013-04-30 05:06:00,
2013-04-30 00:11:00,60.2,57.6,29.83,NNE,31,0.0,0.0,91,0.00,,,0.00,VWS V13.01,2013-04-30 05:11:00,
2013-04-30 00:16:00,60.2,57.9,29.83,NE,49,0.0,0.0,92,0.00,,,0.00,VWS V13.01,2013-04-30 05:16:00,
2013-04-30 00:21:00,60.2,57.9,29.83,NE,39,0.0,0.0,92,0.00,,,0.00,VWS V13.01,2013-04-30 05:21:00,
2013-04-30 00:26:00,60.2,57.9,29.83,NE,39,0.0,0.0,92,0.00,,,0.00,VWS V13.01,2013-04-30 05:26:00,
2013-04-30 00:31:00,60.2,57.9,29.83,NE,44,0.0,0.0,92,0.00,,,0.00,VWS V13.01,2013-04-30 05:31:00,
2013-04-30 00:36:00,60.1,57.7,29.83,NE,44,0.0,0.0,92,0.00,,,0.00,VWS V13.01,2013-04-30 05:36:00,
2013-04-30 00:41:00,60.1,57.7,29.83,NE,44,0.0,0.0,92,0.00,,,0.00,VWS V13.01,2013-04-30 05:41:00,
2013-04-30 00:46:00,59.9,57.5,29.83,NE,39,2.2,3.6,92,0.00,,,0.00,VWS V13.01,2013-04-30 05:46:00,
2013-04-30 00:51:00,60.1,57.7,29.83,NE,39,0.0,0.0,92,0.00,,,0.00,VWS V13.01,2013-04-30 05:51:00,
2013-04-30 00:56:00,60.1,57.7,29.83,NE,39,0.0,0.0,92,0.00,,,0.00,VWS V13.01,2013-04-30 05:56:00,
2013-04-30 01:01:00,60.1,57.4,29.83,NE,39,0.0,0.0,91,0.00,,,0.00,VWS V13.01,2013-04-30 06:01:00,
2013-04-30 01:06:00,59.9,57.2,29.83,NE,39,0.0,0.0,91,0.00,,,0.00,VWS V13.01,2013-04-30 06:06:00,
2013-04-30 01:11:00,59.7,57.1,29.83,NE,39,0.0,0.0,91,0.00,,,0.00,VWS V13.01,2013-04-30 06:11:00,
2013-04-30 01:16:00,59.5,56.9,29.83,NE,39,0.0,0.0,91,0.00,,,0.00,VWS V13.01,2013-04-30 06:16:00,
2013-04-30 01:21:00,59.3,57.0,29.83,NE,39,0.0,0.0,92,0.00,,,0.00,VWS V13.01,2013-04-30 06:21:00,
2013-04-30 01:25:00,59.0,56.7,29.83,NE,39,0.0,0.0,92,0.00,,,0.00,VWS V13.01,2013-04-30 06:25:00,
2013-04-30 01:30:00,59.0,57.0,29.83,NE,39,0.0,0.0,93,0.00,,,0.00,VWS V13.01,2013-04-30 06:30:00,
2013-04-30 01:35:00,58.8,56.8,29.83,NE,39,0.0,0.0,93,0.00,,,0.00,VWS V13.01,2013-04-30 06:35:00,
2013-04-30 01:40:00,58.8,57.1,29.83,NE,39,2.7,3.1,94,0.00,,,0.00,VWS V13.01,2013-04-30 06:40:00,
2013-04-30 01:45:00,58.6,56.9,29.83,NNE,33,2.7,2.7,94,0.00,,,0.00,VWS V13.01,2013-04-30 06:45:00,
2013-04-30 01:50:00,58.6,57.5,29.83,NNE,28,0.0,2.2,96,0.00,,,0.00,VWS V13.01,2013-04-30 06:50:00,
2013-04-30 01:55:00,58.6,57.5,29.83,NNE,28,0.0,2.7,96,0.00,,,0.00,VWS V13.01,2013-04-30 06:55:00,
2013-04-30 02:00:00,58.4,57.0,29.83,NNE,28,2.7,2.7,95,0.00,,,0.00,VWS V13.01,2013-04-30 07:00:00,
2013-04-30 02:05:00,58.3,56.5,29.83,NNE,28,0.0,0.0,94,0.00,,,0.00,VWS V13.01,2013-04-30 07:05:00,
2013-04-30 02:10:00,58.1,56.4,29.83,NNE,28,0.0,0.0,94,0.00,,,0.00,VWS V13.01,2013-04-30 07:10:00,
2013-04-30 02:15:00,57.9,56.2,29.83,NNE,28,0.0,0.0,94,0.00,,,0.00,VWS V13.01,2013-04-30 07:15:00,
2013-04-30 02:20:00,57.7,56.0,29.83,NNE,28,0.0,0.0,94,0.00,,,0.00,VWS V13.01,2013-04-30 07:20:00,
2013-04-30 02:25:00,57.7,56.6,29.83,NNE,28,0.0,0.0,96,0.00,,,0.00,VWS V13.01,2013-04-30 07:25:00,
2013-04-30 02:30:00,57.7,57.2,29.83,NNE,28,0.0,0.0,98,0.00,,,0.00,VWS V13.01,2013-04-30 07:30:00,
2013-04-30 02:35:00,57.7,56.9,29.83,NNE,28,0.0,0.0,97,0.00,,,0.00,VWS V13.01,2013-04-30 07:35:00,
2013-04-30 02:40:00,57.7,56.6,29.83,NNE,28,0.0,0.0,96,0.00,,,0.00,VWS V13.01,2013-04-30 07:40:00,
2013-04-30 02:45:00,57.5,56.1,29.83,North,9,0.0,0.0,95,0.00,,,0.00,VWS V13.01,2013-04-30 07:45:00,
2013-04-30 02:50:00,57.4,55.7,29.83,North,9,0.0,0.0,94,0.00,,,0.00,VWS V13.01,2013-04-30 07:50:00,
2013-04-30 02:55:00,57.2,55.5,29.83,North,9,0.0,0.0,94,0.00,,,0.00,VWS V13.01,2013-04-30 07:55:00,
2013-04-30 03:00:00,56.8,55.4,29.80,North,9,0.0,0.0,95,0.00,,,0.00,VWS V13.01,2013-04-30 08:00:00,
2013-04-30 03:05:00,56.6,55.8,29.80,NNE,22,0.0,0.0,97,0.00,,,0.00,VWS V13.01,2013-04-30 08:05:00,
2013-04-30 03:10:00,56.6,56.6,29.80,NNE,22,0.0,0.0,100,0.00,,,0.00,VWS V13.01,2013-04-30 08:10:00,
2013-04-30 03:15:00,56.6,56.6,29.83,NNE,22,0.0,0.0,100,0.00,,,0.00,VWS V13.01,2013-04-30 08:15:00,
2013-04-30 03:20:00,56.5,56.5,29.83,NNE,22,0.0,0.0,100,0.00,,,0.00,VWS V13.01,2013-04-30 08:20:00,
2013-04-30 03:25:00,56.6,56.6,29.83,NNE,22,0.0,0.0,100,0.00,,,0.00,VWS V13.01,2013-04-30 08:25:00,
2013-04-30 03:30:00,56.6,56.6,29.83,NNE,22,0.0,0.0,100,0.00,,,0.00,VWS V13.01,2013-04-30 08:30:00,
2013-04-30 03:35:00,56.5,56.2,29.83,NNW,333,2.2,2.2,99,0.00,,,0.00,VWS V13.01,2013-04-30 08:35:00,
2013-04-30 03:40:00,56.5,55.6,29.83,NNW,345,0.0,0.0,97,0.00,,,0.00,VWS V13.01,2013-04-30 08:40:00,
2013-04-30 03:45:00,56.6,56.1,29.83,NNE,31,2.7,3.1,98,0.00,,,0.00,VWS V13.01,2013-04-30 08:45:00,
2013-04-30 03:50:00,56.6,55.2,29.83,NNE,15,0.0,0.0,95,0.00,,,0.00,VWS V13.01,2013-04-30 08:50:00,
2013-04-30 03:55:00,56.5,54.8,29.83,NNE,26,3.1,3.1,94,0.00,,,0.00,VWS V13.01,2013-04-30 08:55:00,
2013-04-30 04:00:00,56.5,54.8,29.80,NNE,26,0.0,2.2,94,0.00,,,0.00,VWS V13.01,2013-04-30 09:00:00,
2013-04-30 04:05:00,56.3,54.6,29.80,North,360,2.7,2.7,94,0.00,,,0.00,VWS V13.01,2013-04-30 09:05:00,
2013-04-30 04:10:00,56.1,54.7,29.80,North,3,0.0,0.0,95,0.00,,,0.00,VWS V13.01,2013-04-30 09:10:00,
2013-04-30 04:15:00,55.9,54.2,29.80,North,3,0.0,0.0,94,0.00,,,0.00,VWS V13.01,2013-04-30 09:15:00,
2013-04-30 04:20:00,55.7,54.6,29.80,North,3,0.0,0.0,96,0.00,,,0.00,VWS V13.01,2013-04-30 09:20:00,
2013-04-30 04:25:00,55.7,54.9,29.80,North,3,0.0,0.0,97,0.00,,,0.00,VWS V13.01,2013-04-30 09:25:00,
2013-04-30 04:30:00,55.9,55.4,29.83,North,3,0.0,0.0,98,0.00,,,0.00,VWS V13.01,2013-04-30 09:30:00,
2013-04-30 04:35:00,55.9,55.9,29.83,North,3,0.0,0.0,100,0.00,,,0.00,VWS V13.01,2013-04-30 09:35:00,
2013-04-30 04:40:00,55.6,55.3,29.83,North,3,0.0,0.0,99,0.00,,,0.00,VWS V13.01,2013-04-30 09:40:00,
2013-04-30 04:45:00,55.4,55.1,29.83,North,3,0.0,0.0,99,0.00,,,0.00,VWS V13.01,2013-04-30 09:45:00,
2013-04-30 04:50:00,55.4,55.1,29.83,North,3,0.0,0.0,99,0.00,,,0.00,VWS V13.01,2013-04-30 09:50:00,
2013-04-30 04:55:00,55.2,55.2,29.83,North,3,0.0,0.0,100,0.00,,,0.00,VWS V13.01,2013-04-30 09:55:00,
2013-04-30 05:00:00,55.0,55.0,29.83,North,3,0.0,0.0,100,0.00,,,0.00,VWS V13.01,2013-04-30 10:00:00,
2013-04-30 05:05:00,54.8,54.8,29.83,North,3,0.0,0.0,100,0.00,,,0.00,VWS V13.01,2013-04-30 10:05:00,
2013-04-30 05:10:00,54.8,54.8,29.83,North,3,0.0,0.0,100,0.00,,,0.00,VWS V13.01,2013-04-30 10:10:00,
2013-04-30 05:15:00,54.8,54.8,29.83,North,3,0.0,0.0,100,0.00,,,0.00,VWS V13.01,2013-04-30 10:15:00,
2013-04-30 05:20:00,54.8,54.8,29.83,North,3,0.0,0.0,100,0.00,,,0.00,VWS V13.01,2013-04-30 10:20:00,
2013-04-30 05:25:00,54.7,54.7,29.83,North,3,0.0,0.0,100,0.00,,,0.00,VWS V13.01,2013-04-30 10:25:00,
2013-04-30 05:30:00,54.5,54.5,29.83,NNE,28,0.0,0.0,100,0.00,,,0.00,VWS V13.01,2013-04-30 10:30:00,
2013-04-30 05:35:00,54.3,54.3,29.83,NNE,28,0.0,0.0,100,0.00,,,0.00,VWS V13.01,2013-04-30 10:35:00,
2013-04-30 05:40:00,54.1,54.1,29.83,NNE,28,0.0,0.0,100,0.00,,,0.00,VWS V13.01,2013-04-30 10:40:00,
2013-04-30 05:45:00,54.1,54.1,29.83,NNE,28,0.0,0.0,100,0.00,,,0.00,VWS V13.01,2013-04-30 10:45:00,
2013-04-30 05:50:00,54.3,54.3,29.83,NNE,28,0.0,0.0,100,0.00,,,0.00,VWS V13.01,2013-04-30 10:50:00,
2013-04-30 05:55:00,54.1,54.1,29.83,NNE,28,0.0,0.0,100,0.00,,,0.00,VWS V13.01,2013-04-30 10:55:00,
2013-04-30 06:00:00,54.1,54.1,29.83,NNE,28,0.0,0.0,100,0.00,,,0.00,VWS V13.01,2013-04-30 11:00:00,
2013-04-30 06:05:00,53.9,53.9,29.83,NNE,28,0.0,0.0,100,0.00,,,0.00,VWS V13.01,2013-04-30 11:05:00,
2013-04-30 06:10:00,53.9,53.9,29.83,NNE,28,0.0,0.0,100,0.00,,,0.00,VWS V13.01,2013-04-30 11:10:00,
2013-04-30 06:15:00,54.1,54.1,29.83,NNE,28,0.0,0.0,100,0.00,,,0.00,VWS V13.01,2013-04-30 11:15:00,
2013-04-30 06:20:00,53.8,53.8,29.83,NE,42,0.0,2.2,100,0.00,,,0.00,VWS V13.01,2013-04-30 11:20:00,
2013-04-30 06:25:00,53.6,53.6,29.83,NE,36,0.0,0.0,100,0.00,,,0.00,VWS V13.01,2013-04-30 11:25:00,
2013-04-30 06:30:00,53.4,53.4,29.83,North,5,0.0,0.0,100,0.00,,,0.00,VWS V13.01,2013-04-30 11:30:00,
2013-04-30 06:35:00,53.6,53.6,29.83,NNE,13,2.7,3.1,100,0.00,,,0.00,VWS V13.01,2013-04-30 11:35:00,
2013-04-30 06:40:00,53.8,53.8,29.83,NNE,18,3.1,3.1,100,0.00,,,0.00,VWS V13.01,2013-04-30 11:40:00,
2013-04-30 06:45:00,53.6,53.6,29.83,NNE,31,0.0,0.0,100,0.00,,,0.00,VWS V13.01,2013-04-30 11:45:00,
2013-04-30 06:50:00,53.8,53.8,29.83,NE,52,0.0,0.0,100,0.00,,,0.00,VWS V13.01,2013-04-30 11:50:00,
2013-04-30 06:55:00,53.9,53.9,29.83,NE,39,0.0,0.0,100,0.00,,,0.00,VWS V13.01,2013-04-30 11:55:00,
2013-04-30 07:00:00,53.9,53.9,29.83,NE,39,0.0,0.0,100,0.00,,,0.00,VWS V13.01,2013-04-30 12:00:00,
2013-04-30 07:05:00,54.3,54.3,29.83,North,8,0.0,0.0,100,0.00,,,0.00,VWS V13.01,2013-04-30 12:05:00,
2013-04-30 07:10:00,54.3,54.3,29.83,North,9,0.0,0.0,100,0.00,,,0.00,VWS V13.01,2013-04-30 12:10:00,
2013-04-30 07:14:00,54.7,54.7,29.83,North,9,0.0,0.0,100,0.00,,,0.00,VWS V13.01,2013-04-30 12:14:00,
2013-04-30 07:19:00,55.0,55.0,29.83,North,9,0.0,0.0,100,0.00,,,0.00,VWS V13.01,2013-04-30 12:19:00,
2013-04-30 07:24:00,55.4,55.4,29.83,North,9,0.0,0.0,100,0.00,,,0.00,VWS V13.01,2013-04-30 12:24:00,
2013-04-30 07:29:00,55.9,55.9,29.83,North,9,0.0,0.0,100,0.00,,,0.00,VWS V13.01,2013-04-30 12:29:00,
2013-04-30 07:34:00,56.3,56.3,29.83,North,9,0.0,0.0,100,0.00,,,0.00,VWS V13.01,2013-04-30 12:34:00,
2013-04-30 07:39:00,56.6,56.6,29.83,North,9,0.0,0.0,100,0.00,,,0.00,VWS V13.01,2013-04-30 12:39:00,
2013-04-30 07:44:00,57.0,57.0,29.86,North,9,0.0,0.0,100,0.00,,,0.00,VWS V13.01,2013-04-30 12:44:00,
2013-04-30 07:49:00,57.7,57.7,29.86,NNE,31,3.1,3.1,100,0.00,,,0.00,VWS V13.01,2013-04-30 12:49:00,
2013-04-30 07:54:00,59.0,56.7,29.86,NNE,18,0.0,2.7,92,0.00,,,0.00,VWS V13.01,2013-04-30 12:54:00,
2013-04-30 07:59:00,60.2,55.7,29.86,NNE,19,2.2,3.1,85,0.00,,,0.00,VWS V13.01,2013-04-30 12:59:00,
2013-04-30 08:04:00,61.5,56.3,29.86,NE,36,2.2,2.2,83,0.00,,,0.00,VWS V13.01,2013-04-30 13:04:00,
2013-04-30 08:09:00,62.2,55.6,29.86,NNE,30,2.2,3.1,79,0.00,,,0.00,VWS V13.01,2013-04-30 13:09:00,
2013-04-30 08:14:00,62.9,56.0,29.86,NNE,27,0.0,0.0,78,0.00,,,0.00,VWS V13.01,2013-04-30 13:14:00,
2013-04-30 08:19:00,63.8,55.4,29.86,NNE,32,2.7,3.6,74,0.00,,,0.00,VWS V13.01,2013-04-30 13:19:00,
2013-04-30 08:24:00,64.4,55.9,29.86,ENE,60,0.0,2.2,74,0.00,,,0.00,VWS V13.01,2013-04-30 13:24:00,
2013-04-30 08:29:00,65.1,54.7,29.86,NNE,13,3.6,3.6,69,0.00,,,0.00,VWS V13.01,2013-04-30 13:29:00,
2013-04-30 08:34:00,65.5,53.8,29.86,NNE,31,2.7,4.0,66,0.00,,,0.00,VWS V13.01,2013-04-30 13:34:00,
2013-04-30 08:39:00,65.8,54.2,29.86,ENE,57,3.6,3.6,66,0.00,,,0.00,VWS V13.01,2013-04-30 13:39:00,
2013-04-30 08:44:00,66.4,54.7,29.86,NE,37,2.7,2.7,66,0.00,,,0.00,VWS V13.01,2013-04-30 13:44:00,
2013-04-30 08:49:00,66.9,55.2,29.86,NE,53,3.6,3.6,66,0.00,,,0.00,VWS V13.01,2013-04-30 13:49:00,
2013-04-30 08:54:00,67.4,54.8,29.86,East,95,2.7,3.1,64,0.00,,,0.00,VWS V13.01,2013-04-30 13:54:00,
2013-04-30 08:59:00,67.8,53.9,29.86,East,89,2.7,2.7,61,0.00,,,0.00,VWS V13.01,2013-04-30 13:59:00,
2013-04-30 09:04:00,68.3,53.9,29.86,NNE,29,3.6,3.6,60,0.00,,,0.00,VWS V13.01,2013-04-30 14:04:00,
2013-04-30 09:09:00,68.7,53.3,29.86,ENE,71,3.6,4.0,58,0.00,,,0.00,VWS V13.01,2013-04-30 14:09:00,
2013-04-30 09:14:00,68.9,53.5,29.86,East,90,0.0,0.0,58,0.00,,,0.00,VWS V13.01,2013-04-30 14:14:00,
2013-04-30 09:19:00,69.1,54.2,29.86,NE,36,3.1,3.1,59,0.00,,,0.00,VWS V13.01,2013-04-30 14:19:00,
2013-04-30 09:24:00,69.6,53.7,29.86,NE,55,4.0,4.0,57,0.00,,,0.00,VWS V13.01,2013-04-30 14:24:00,
2013-04-30 09:29:00,69.8,53.9,29.86,NE,38,3.1,3.6,57,0.00,,,0.00,VWS V13.01,2013-04-30 14:29:00,
2013-04-30 09:34:00,70.5,53.6,29.86,East,96,3.6,3.6,55,0.00,,,0.00,VWS V13.01,2013-04-30 14:34:00,
2013-04-30 09:39:00,70.7,54.2,29.86,ENE,75,0.0,2.7,56,0.00,,,0.00,VWS V13.01,2013-04-30 14:39:00,
2013-04-30 09:44:00,71.0,54.1,29.86,ESE,104,0.0,2.2,55,0.00,,,0.00,VWS V13.01,2013-04-30 14:44:00,
2013-04-30 09:49:00,71.2,54.2,29.86,NE,45,2.7,2.7,55,0.00,,,0.00,VWS V13.01,2013-04-30 14:49:00,
2013-04-30 09:54:00,71.6,53.6,29.86,ENE,68,4.0,4.0,53,0.00,,,0.00,VWS V13.01,2013-04-30 14:54:00,
2013-04-30 09:59:00,71.6,53.6,29.86,East,98,5.4,5.4,53,0.00,,,0.00,VWS V13.01,2013-04-30 14:59:00,
2013-04-30 10:04:00,71.8,54.2,29.86,NE,50,2.2,2.7,54,0.00,,,0.00,VWS V13.01,2013-04-30 15:04:00,
2013-04-30 10:09:00,72.5,54.4,29.86,NE,53,0.0,0.0,53,0.00,,,0.00,VWS V13.01,2013-04-30 15:09:00,
2013-04-30 10:14:00,73.6,54.9,29.86,NE,37,2.7,2.7,52,0.00,,,0.00,VWS V13.01,2013-04-30 15:14:00,
2013-04-30 10:19:00,74.3,55.5,29.86,SSW,209,3.6,4.0,52,0.00,,,0.00,VWS V13.01,2013-04-30 15:19:00,
2013-04-30 10:24:00,73.9,55.2,29.86,East,97,3.6,3.6,52,0.00,,,0.00,VWS V13.01,2013-04-30 15:24:00,
2013-04-30 10:29:00,73.6,54.3,29.86,South,178,3.1,5.4,51,0.00,,,0.00,VWS V13.01,2013-04-30 15:29:00,
2013-04-30 10:34:00,73.2,54.0,29.86,SW,218,0.0,0.0,51,0.00,,,0.00,VWS V13.01,2013-04-30 15:34:00,
2013-04-30 10:39:00,73.4,54.2,29.86,NE,51,2.2,2.7,51,0.00,,,0.00,VWS V13.01,2013-04-30 15:39:00,
2013-04-30 10:44:00,74.5,54.6,29.86,NE,42,2.2,2.2,50,0.00,,,0.00,VWS V13.01,2013-04-30 15:44:00,
2013-04-30 10:49:00,75.2,55.8,29.86,SSE,167,5.8,5.8,51,0.00,,,0.00,VWS V13.01,2013-04-30 15:49:00,
2013-04-30 10:54:00,74.5,55.2,29.86,ESE,118,2.7,2.7,51,0.00,,,0.00,VWS V13.01,2013-04-30 15:54:00,
2013-04-30 10:59:00,74.5,55.2,29.89,SSW,199,0.0,3.6,51,0.00,,,0.00,VWS V13.01,2013-04-30 15:59:00,
2013-04-30 11:04:00,74.6,55.3,29.89,NNE,28,5.8,5.8,51,0.00,,,0.00,VWS V13.01,2013-04-30 16:04:00,
2013-04-30 11:09:00,75.4,56.0,29.89,NNE,25,3.1,3.1,51,0.00,,,0.00,VWS V13.01,2013-04-30 16:09:00,
2013-04-30 11:14:00,75.7,55.2,29.89,ESE,114,3.1,3.1,49,0.00,,,0.00,VWS V13.01,2013-04-30 16:14:00,
2013-04-30 11:19:00,76.1,55.6,29.89,East,92,2.7,2.7,49,0.00,,,0.00,VWS V13.01,2013-04-30 16:19:00,
2013-04-30 11:24:00,76.6,54.9,29.89,NNE,20,3.1,4.0,47,0.00,,,0.00,VWS V13.01,2013-04-30 16:24:00,
2013-04-30 11:29:00,76.8,55.1,29.86,North,9,3.1,5.4,47,0.00,,,0.00,VWS V13.01,2013-04-30 16:29:00,
2013-04-30 11:34:00,77.2,56.5,29.86,NNE,23,4.0,4.0,49,0.00,,,0.00,VWS V13.01,2013-04-30 16:34:00,
2013-04-30 11:39:00,77.2,56.0,29.86,North,353,2.7,5.4,48,0.00,,,0.00,VWS V13.01,2013-04-30 16:39:00,
2013-04-30 11:44:00,77.5,54.5,29.86,ESE,108,0.0,3.6,45,0.00,,,0.00,VWS V13.01,2013-04-30 16:44:00,
2013-04-30 11:49:00,77.5,55.1,29.86,SSE,156,2.7,5.4,46,0.00,,,0.00,VWS V13.01,2013-04-30 16:49:00,
2013-04-30 11:54:00,77.9,56.0,29.86,NE,41,4.0,4.0,47,0.00,,,0.00,VWS V13.01,2013-04-30 16:54:00,
2013-04-30 11:59:00,78.2,53.3,29.86,North,11,5.8,5.8,42,0.00,,,0.00,VWS V13.01,2013-04-30 16:59:00,
2013-04-30 12:04:00,77.9,53.0,29.86,ESE,107,2.7,4.9,42,0.00,,,0.00,VWS V13.01,2013-04-30 17:04:00,
2013-04-30 12:09:00,78.6,53.0,29.86,East,100,6.3,10.1,41,0.00,,,0.00,VWS V13.01,2013-04-30 17:09:00,
2013-04-30 12:14:00,78.6,53.0,29.86,East,99,4.9,6.3,41,0.00,,,0.00,VWS V13.01,2013-04-30 17:14:00,
2013-04-30 12:19:00,78.4,53.5,29.86,ESE,121,7.6,7.6,42,0.00,,,0.00,VWS V13.01,2013-04-30 17:19:00,
2013-04-30 12:24:00,78.2,52.6,29.86,NNE,22,3.1,4.0,41,0.00,,,0.00,VWS V13.01,2013-04-30 17:24:00,
2013-04-30 12:29:00,78.6,53.0,29.86,ESE,107,2.7,4.0,41,0.00,,,0.00,VWS V13.01,2013-04-30 17:29:00,
2013-04-30 12:34:00,78.8,53.1,29.86,ESE,105,2.7,3.6,41,0.00,,,0.00,VWS V13.01,2013-04-30 17:34:00,
2013-04-30 12:39:00,79.3,52.9,29.86,ESE,114,8.3,8.3,40,0.00,,,0.00,VWS V13.01,2013-04-30 17:39:00,
2013-04-30 12:44:00,79.5,53.1,29.86,East,101,11.0,11.0,40,0.00,,,0.00,VWS V13.01,2013-04-30 17:44:00,
2013-04-30 12:49:00,79.3,52.9,29.86,SSE,147,10.5,10.5,40,0.00,,,0.00,VWS V13.01,2013-04-30 17:49:00,
2013-04-30 12:54:00,78.8,52.5,29.86,ENE,76,8.7,8.7,40,0.00,,,0.00,VWS V13.01,2013-04-30 17:54:00,
2013-04-30 12:59:00,78.8,52.5,29.83,SE,134,8.7,11.0,40,0.00,,,0.00,VWS V13.01,2013-04-30 17:59:00,
2013-04-30 13:04:00,79.0,52.6,29.83,SSE,161,4.0,6.3,40,0.00,,,0.00,VWS V13.01,2013-04-30 18:04:00,
2013-04-30 13:09:00,79.1,53.4,29.83,ESE,104,5.4,8.7,41,0.00,,,0.00,VWS V13.01,2013-04-30 18:09:00,
2013-04-30 13:13:00,79.9,53.4,29.86,ENE,73,2.7,4.9,40,0.00,,,0.00,VWS V13.01,2013-04-30 18:13:00,
2013-04-30 13:18:00,80.2,53.7,29.86,SE,133,5.4,8.1,40,0.00,,,0.00,VWS V13.01,2013-04-30 18:18:00,
2013-04-30 13:23:00,79.3,52.9,29.86,ESE,106,5.8,6.3,40,0.00,,,0.00,VWS V13.01,2013-04-30 18:23:00,
2013-04-30 13:28:00,79.5,53.1,29.83,SE,125,3.6,5.4,40,0.00,,,0.00,VWS V13.01,2013-04-30 18:28:00,
2013-04-30 13:33:00,79.9,54.1,29.83,East,95,4.0,6.3,41,0.00,,,0.00,VWS V13.01,2013-04-30 18:33:00,
2013-04-30 13:38:00,80.0,53.6,29.83,ESE,112,4.0,8.3,40,0.00,,,0.00,VWS V13.01,2013-04-30 18:38:00,
2013-04-30 13:43:00,79.7,53.2,29.83,ESE,108,5.8,8.7,40,0.00,,,0.00,VWS V13.01,2013-04-30 18:43:00,
2013-04-30 13:48:00,79.5,54.4,29.83,SE,135,6.3,6.3,42,0.00,,,0.00,VWS V13.01,2013-04-30 18:48:00,
2013-04-30 13:53:00,79.3,53.6,29.83,SE,143,5.8,6.3,41,0.00,,,0.00,VWS V13.01,2013-04-30 18:53:00,
2013-04-30 13:58:00,79.3,53.6,29.83,SE,125,7.6,8.7,41,0.00,,,0.00,VWS V13.01,2013-04-30 18:58:00,
2013-04-30 14:03:00,80.0,54.2,29.83,ENE,69,5.4,8.1,41,0.00,,,0.00,VWS V13.01,2013-04-30 19:03:00,
2013-04-30 14:08:00,79.9,53.4,29.83,East,98,5.8,7.6,40,0.00,,,0.00,VWS V13.01,2013-04-30 19:08:00,
2013-04-30 14:13:00,80.0,53.6,29.83,East,80,5.4,6.3,40,0.00,,,0.00,VWS V13.01,2013-04-30 19:13:00,
2013-04-30 14:18:00,80.0,53.6,29.83,ENE,69,6.3,8.3,40,0.00,,,0.00,VWS V13.01,2013-04-30 19:18:00,
2013-04-30 14:23:00,80.2,53.7,29.83,ENE,57,4.0,5.8,40,0.00,,,0.00,VWS V13.01,2013-04-30 19:23:00,
2013-04-30 14:28:00,80.4,53.2,29.83,NE,56,6.3,8.1,39,0.00,,,0.00,VWS V13.01,2013-04-30 19:28:00,
2013-04-30 14:33:00,80.8,53.5,29.83,East,79,5.4,8.3,39,0.00,,,0.00,VWS V13.01,2013-04-30 19:33:00,
2013-04-30 14:38:00,80.9,53.7,29.83,East,95,8.1,11.9,39,0.00,,,0.00,VWS V13.01,2013-04-30 19:38:00,
2013-04-30 14:43:00,80.8,53.5,29.83,East,98,8.3,8.7,39,0.00,,,0.00,VWS V13.01,2013-04-30 19:43:00,
2013-04-30 14:48:00,80.8,53.5,29.83,East,88,8.3,8.3,39,0.00,,,0.00,VWS V13.01,2013-04-30 19:48:00,
2013-04-30 14:53:00,80.8,53.5,29.83,SSE,150,5.4,7.6,39,0.00,,,0.00,VWS V13.01,2013-04-30 19:53:00,
2013-04-30 14:58:00,81.1,53.8,29.83,SE,128,4.0,8.7,39,0.00,,,0.00,VWS V13.01,2013-04-30 19:58:00,
2013-04-30 15:03:00,81.3,54.0,29.83,ESE,118,6.3,6.3,39,0.00,,,0.00,VWS V13.01,2013-04-30 20:03:00,
2013-04-30 15:08:00,81.1,53.8,29.83,ESE,120,8.3,8.7,39,0.00,,,0.00,VWS V13.01,2013-04-30 20:08:00,
2013-04-30 15:13:00,81.3,54.0,29.83,ESE,102,3.6,5.8,39,0.00,,,0.00,VWS V13.01,2013-04-30 20:13:00,
2013-04-30 15:18:00,81.3,54.0,29.83,SE,125,8.7,8.7,39,0.00,,,0.00,VWS V13.01,2013-04-30 20:18:00,
2013-04-30 15:23:00,81.3,54.0,29.83,ENE,76,5.4,5.4,39,0.00,,,0.00,VWS V13.01,2013-04-30 20:23:00,
2013-04-30 15:28:00,81.8,54.5,29.80,East,93,10.1,10.5,39,0.00,,,0.00,VWS V13.01,2013-04-30 20:28:00,
2013-04-30 15:33:00,81.1,51.7,29.80,SE,133,5.4,5.8,36,0.00,,,0.00,VWS V13.01,2013-04-30 20:33:00,
2013-04-30 15:38:00,81.1,53.8,29.80,ESE,111,7.6,7.6,39,0.00,,,0.00,VWS V13.01,2013-04-30 20:38:00,
2013-04-30 15:43:00,81.5,54.2,29.80,East,97,6.3,8.1,39,0.00,,,0.00,VWS V13.01,2013-04-30 20:43:00,
2013-04-30 15:48:00,81.5,52.0,29.80,SSE,147,5.8,7.6,36,0.00,,,0.00,VWS V13.01,2013-04-30 20:48:00,
2013-04-30 15:53:00,81.7,52.1,29.80,SE,128,11.0,11.9,36,0.00,,,0.00,VWS V13.01,2013-04-30 20:53:00,
2013-04-30 15:58:00,81.5,52.0,29.80,ESE,123,6.3,6.3,36,0.00,,,0.00,VWS V13.01,2013-04-30 20:58:00,
2013-04-30 16:03:00,81.3,51.8,29.80,ESE,120,3.6,3.6,36,0.00,,,0.00,VWS V13.01,2013-04-30 21:03:00,
2013-04-30 16:08:00,81.1,51.7,29.80,ESE,112,8.3,8.7,36,0.00,,,0.00,VWS V13.01,2013-04-30 21:08:00,
2013-04-30 16:13:00,81.3,50.3,29.80,NE,35,7.6,8.1,34,0.00,,,0.00,VWS V13.01,2013-04-30 21:13:00,
2013-04-30 16:18:00,81.3,51.8,29.80,SE,143,6.3,6.3,36,0.00,,,0.00,VWS V13.01,2013-04-30 21:18:00,
2013-04-30 16:23:00,81.5,52.0,29.80,SE,143,4.9,5.8,36,0.00,,,0.00,VWS V13.01,2013-04-30 21:23:00,
2013-04-30 16:28:00,81.7,52.1,29.80,ESE,120,5.8,8.3,36,0.00,,,0.00,VWS V13.01,2013-04-30 21:28:00,
2013-04-30 16:33:00,81.7,52.1,29.80,East,80,8.7,8.7,36,0.00,,,0.00,VWS V13.01,2013-04-30 21:33:00,
2013-04-30 16:38:00,81.5,52.0,29.80,SSE,147,5.4,5.4,36,0.00,,,0.00,VWS V13.01,2013-04-30 21:38:00,
2013-04-30 16:43:00,81.7,52.1,29.80,East,97,2.7,2.7,36,0.00,,,0.00,VWS V13.01,2013-04-30 21:43:00,
2013-04-30 16:48:00,81.7,52.1,29.80,East,99,3.6,4.0,36,0.00,,,0.00,VWS V13.01,2013-04-30 21:48:00,
2013-04-30 16:53:00,81.5,50.4,29.80,East,92,8.3,8.3,34,0.00,,,0.00,VWS V13.01,2013-04-30 21:53:00,
2013-04-30 16:58:00,81.5,52.0,29.80,SE,131,5.8,10.1,36,0.00,,,0.00,VWS V13.01,2013-04-30 21:58:00,
2013-04-30 17:03:00,81.5,50.4,29.80,ENE,57,5.4,8.7,34,0.00,,,0.00,VWS V13.01,2013-04-30 22:03:00,
2013-04-30 17:08:00,81.3,51.8,29.80,ESE,114,6.3,6.3,36,0.00,,,0.00,VWS V13.01,2013-04-30 22:08:00,
2013-04-30 17:13:00,80.9,51.5,29.80,NW,304,6.3,6.3,36,0.00,,,0.00,VWS V13.01,2013-04-30 22:13:00,
2013-04-30 17:18:00,81.1,50.1,29.80,NNE,28,9.6,9.6,34,0.00,,,0.00,VWS V13.01,2013-04-30 22:18:00,
2013-04-30 17:23:00,81.1,51.7,29.80,SSE,150,7.6,7.6,36,0.00,,,0.00,VWS V13.01,2013-04-30 22:23:00,
2013-04-30 17:28:00,80.9,50.0,29.80,SE,131,8.1,10.1,34,0.00,,,0.00,VWS V13.01,2013-04-30 22:28:00,
2013-04-30 17:33:00,80.8,51.3,29.80,SE,125,8.1,8.1,36,0.00,,,0.00,VWS V13.01,2013-04-30 22:33:00,
2013-04-30 17:38:00,80.8,51.3,29.80,SE,131,4.0,5.4,36,0.00,,,0.00,VWS V13.01,2013-04-30 22:38:00,
2013-04-30 17:43:00,80.8,51.3,29.80,East,83,4.0,8.3,36,0.00,,,0.00,VWS V13.01,2013-04-30 22:43:00,
2013-04-30 17:48:00,80.8,51.3,29.80,SE,125,3.6,3.6,36,0.00,,,0.00,VWS V13.01,2013-04-30 22:48:00,
2013-04-30 17:53:00,80.8,51.3,29.80,South,184,5.8,6.3,36,0.00,,,0.00,VWS V13.01,2013-04-30 22:53:00,
2013-04-30 17:58:00,80.8,51.3,29.80,ESE,106,5.4,8.3,36,0.00,,,0.00,VWS V13.01,2013-04-30 22:58:00,
2013-04-30 18:03:00,80.6,51.2,29.80,ENE,77,6.7,6.7,36,0.00,,,0.00,VWS V13.01,2013-04-30 23:03:00,
2013-04-30 18:08:00,80.4,49.5,29.80,ESE,118,8.7,12.3,34,0.00,,,0.00,VWS V13.01,2013-04-30 23:08:00,
2013-04-30 18:13:00,80.2,51.6,29.80,ESE,109,7.6,8.7,37,0.00,,,0.00,VWS V13.01,2013-04-30 23:13:00,
2013-04-30 18:18:00,80.0,51.5,29.80,ENE,75,8.7,8.7,37,0.00,,,0.00,VWS V13.01,2013-04-30 23:18:00,
2013-04-30 18:23:00,80.0,51.5,29.80,ESE,123,4.0,4.0,37,0.00,,,0.00,VWS V13.01,2013-04-30 23:23:00,
2013-04-30 18:28:00,79.9,51.3,29.80,SE,128,7.6,7.6,37,0.00,,,0.00,VWS V13.01,2013-04-30 23:28:00,
2013-04-30 18:33:00,79.9,51.3,29.83,ESE,104,7.6,12.3,37,0.00,,,0.00,VWS V13.01,2013-04-30 23:33:00,
2013-04-30 18:38:00,79.7,51.1,29.83,East,97,8.1,8.1,37,0.00,,,0.00,VWS V13.01,2013-04-30 23:38:00,
2013-04-30 18:43:00,79.5,51.0,29.83,East,81,6.3,7.6,37,0.00,,,0.00,VWS V13.01,2013-04-30 23:43:00,
2013-04-30 18:48:00,79.3,50.8,29.83,NE,53,5.4,7.6,37,0.00,,,0.00,VWS V13.01,2013-04-30 23:48:00,
2013-04-30 18:53:00,79.0,51.9,29.83,East,87,3.1,3.1,39,0.00,,,0.00,VWS V13.01,2013-04-30 23:53:00,
2013-04-30 18:58:00,78.8,51.8,29.83,North,1,3.1,4.9,39,0.00,,,0.00,VWS V13.01,2013-04-30 23:58:00,
2013-04-30 19:03:00,78.4,52.1,29.80,East,90,2.7,3.6,40,0.00,,,0.00,VWS V13.01,2013-05-01 00:03:00,
2013-04-30 19:08:00,78.2,52.0,29.80,ESE,102,5.4,6.3,40,0.00,,,0.00,VWS V13.01,2013-05-01 00:08:00,
2013-04-30 19:13:00,77.9,51.6,29.80,East,81,0.0,3.1,40,0.00,,,0.00,VWS V13.01,2013-05-01 00:13:00,
2013-04-30 19:18:00,77.7,51.5,29.83,ENE,59,2.7,3.1,40,0.00,,,0.00,VWS V13.01,2013-05-01 00:18:00,
2013-04-30 19:23:00,77.3,51.2,29.83,NE,51,2.7,2.7,40,0.00,,,0.00,VWS V13.01,2013-05-01 00:23:00,
2013-04-30 19:28:00,77.2,51.0,29.83,ESE,121,3.6,3.6,40,0.00,,,0.00,VWS V13.01,2013-05-01 00:28:00,
2013-04-30 19:33:00,76.8,50.7,29.83,ENE,67,2.7,3.1,40,0.00,,,0.00,VWS V13.01,2013-05-01 00:33:00,
2013-04-30 19:38:00,76.3,50.9,29.83,ENE,73,2.7,3.1,41,0.00,,,0.00,VWS V13.01,2013-05-01 00:38:00,
2013-04-30 19:43:00,75.9,50.5,29.83,ENE,59,2.7,3.6,41,0.00,,,0.00,VWS V13.01,2013-05-01 00:43:00,
2013-04-30 19:48:00,75.5,50.2,29.83,East,87,5.4,8.1,41,0.00,,,0.00,VWS V13.01,2013-05-01 00:48:00,
2013-04-30 19:53:00,75.4,50.0,29.83,East,80,3.6,4.0,41,0.00,,,0.00,VWS V13.01,2013-05-01 00:53:00,
2013-04-30 19:57:00,75.0,49.7,29.83,East,94,4.0,5.4,41,0.00,,,0.00,VWS V13.01,2013-05-01 00:57:00,
2013-04-30 20:02:00,74.8,50.2,29.83,ENE,78,0.0,0.0,42,0.00,,,0.00,VWS V13.01,2013-05-01 01:02:00,
2013-04-30 20:07:00,74.3,49.7,29.83,ENE,68,3.6,5.8,42,0.00,,,0.00,VWS V13.01,2013-05-01 01:07:00,
2013-04-30 20:12:00,73.9,49.4,29.83,ENE,64,3.6,5.4,42,0.00,,,0.00,VWS V13.01,2013-05-01 01:12:00,
2013-04-30 20:17:00,73.6,49.1,29.83,SE,131,2.7,2.7,42,0.00,,,0.00,VWS V13.01,2013-05-01 01:17:00,
2013-04-30 20:22:00,73.4,48.9,29.83,East,80,2.2,2.7,42,0.00,,,0.00,VWS V13.01,2013-05-01 01:22:00,
2013-04-30 20:27:00,73.0,49.2,29.83,East,99,2.2,2.2,43,0.00,,,0.00,VWS V13.01,2013-05-01 01:27:00,
2013-04-30 20:32:00,72.8,49.1,29.83,East,93,2.7,3.6,43,0.00,,,0.00,VWS V13.01,2013-05-01 01:32:00,
2013-04-30 20:37:00,72.7,48.9,29.83,East,101,2.7,3.1,43,0.00,,,0.00,VWS V13.01,2013-05-01 01:37:00,
2013-04-30 20:42:00,72.7,48.9,29.83,ENE,78,5.8,5.8,43,0.00,,,0.00,VWS V13.01,2013-05-01 01:42:00,
2013-04-30 20:47:00,72.3,48.6,29.83,East,84,4.9,6.3,43,0.00,,,0.00,VWS V13.01,2013-05-01 01:47:00,
2013-04-30 20:52:00,72.1,48.4,29.83,ENE,78,3.6,3.6,43,0.00,,,0.00,VWS V13.01,2013-05-01 01:52:00,
2013-04-30 20:57:00,71.8,48.7,29.83,East,89,0.0,3.6,44,0.00,,,0.00,VWS V13.01,2013-05-01 01:57:00,
2013-04-30 21:02:00,71.6,48.5,29.83,East,99,3.1,3.1,44,0.00,,,0.00,VWS V13.01,2013-05-01 02:02:00,
2013-04-30 21:07:00,71.4,49.0,29.83,ENE,57,2.2,2.2,45,0.00,,,0.00,VWS V13.01,2013-05-01 02:07:00,
2013-04-30 21:12:00,71.2,49.4,29.83,ENE,75,0.0,0.0,46,0.00,,,0.00,VWS V13.01,2013-05-01 02:12:00,
2013-04-30 21:17:00,70.9,49.1,29.83,ENE,75,0.0,0.0,46,0.00,,,0.00,VWS V13.01,2013-05-01 02:17:00,
2013-04-30 21:22:00,70.5,48.8,29.83,ENE,75,0.0,0.0,46,0.00,,,0.00,VWS V13.01,2013-05-01 02:22:00,
2013-04-30 21:27:00,70.1,49.0,29.83,ENE,71,0.0,0.0,47,0.00,,,0.00,VWS V13.01,2013-05-01 02:27:00,
2013-04-30 21:32:00,69.8,49.2,29.83,NE,46,0.0,0.0,48,0.00,,,0.00,VWS V13.01,2013-05-01 02:32:00,
2013-04-30 21:37:00,69.6,49.6,29.83,NE,46,0.0,0.0,49,0.00,,,0.00,VWS V13.01,2013-05-01 02:37:00,
2013-04-30 21:42:00,69.2,49.8,29.83,NE,46,0.0,0.0,50,0.00,,,0.00,VWS V13.01,2013-05-01 02:42:00,
2013-04-30 21:47:00,69.1,50.2,29.83,NE,46,0.0,0.0,51,0.00,,,0.00,VWS V13.01,2013-05-01 02:47:00,
2013-04-30 21:52:00,68.7,50.4,29.83,NNE,21,0.0,0.0,52,0.00,,,0.00,VWS V13.01,2013-05-01 02:52:00,
2013-04-30 21:57:00,68.2,49.9,29.83,NNE,21,0.0,0.0,52,0.00,,,0.00,VWS V13.01,2013-05-01 02:57:00,
2013-04-30 22:02:00,67.6,49.9,29.83,NNE,21,0.0,0.0,53,0.00,,,0.00,VWS V13.01,2013-05-01 03:02:00,
2013-04-30 22:07:00,66.7,50.1,29.83,NNE,21,0.0,0.0,55,0.00,,,0.00,VWS V13.01,2013-05-01 03:07:00,
2013-04-30 22:12:00,66.2,50.0,29.83,NNE,21,0.0,0.0,56,0.00,,,0.00,VWS V13.01,2013-05-01 03:12:00,
2013-04-30 22:17:00,65.5,49.8,29.83,NNE,28,0.0,0.0,57,0.00,,,0.00,VWS V13.01,2013-05-01 03:17:00,
2013-04-30 22:22:00,65.1,49.5,29.83,NNE,27,0.0,0.0,57,0.00,,,0.00,VWS V13.01,2013-05-01 03:22:00,
2013-04-30 22:27:00,64.9,49.8,29.83,NNE,27,0.0,0.0,58,0.00,,,0.00,VWS V13.01,2013-05-01 03:27:00,
2013-04-30 22:32:00,64.7,49.6,29.83,NNE,28,2.7,3.1,58,0.00,,,0.00,VWS V13.01,2013-05-01 03:32:00,
2013-04-30 22:37:00,64.4,49.8,29.83,NNE,29,0.0,0.0,59,0.00,,,0.00,VWS V13.01,2013-05-01 03:37:00,
2013-04-30 22:42:00,64.0,49.9,29.83,NNE,28,0.0,2.2,60,0.00,,,0.00,VWS V13.01,2013-05-01 03:42:00,
2013-04-30 22:47:00,63.7,50.8,29.86,NNE,29,2.7,2.7,63,0.00,,,0.00,VWS V13.01,2013-05-01 03:47:00,
2013-04-30 22:52:00,63.3,50.5,29.86,NNE,28,2.2,2.7,63,0.00,,,0.00,VWS V13.01,2013-05-01 03:52:00,
2013-04-30 22:57:00,62.8,50.0,29.86,NNE,29,0.0,2.7,63,0.00,,,0.00,VWS V13.01,2013-05-01 03:57:00,
2013-04-30 23:01:00,62.4,50.1,29.83,NNE,28,0.0,0.0,64,0.00,,,0.00,VWS V13.01,2013-05-01 04:01:00,
2013-04-30 23:06:00,62.2,50.3,29.83,NNE,28,0.0,0.0,65,0.00,,,0.00,VWS V13.01,2013-05-01 04:06:00,
2013-04-30 23:11:00,62.2,49.9,29.83,NNE,29,0.0,0.0,64,0.00,,,0.00,VWS V13.01,2013-05-01 04:11:00,
2013-04-30 23:16:00,62.4,49.7,29.86,NNE,29,0.0,0.0,63,0.00,,,0.00,VWS V13.01,2013-05-01 04:16:00,
2013-04-30 23:21:00,62.8,49.6,29.86,NNE,29,0.0,0.0,62,0.00,,,0.00,VWS V13.01,2013-05-01 04:21:00,
2013-04-30 23:26:00,62.8,50.0,29.86,NNW,342,0.0,0.0,63,0.00,,,0.00,VWS V13.01,2013-05-01 04:26:00,
2013-04-30 23:31:00,62.8,50.0,29.86,NNW,342,0.0,0.0,63,0.00,,,0.00,VWS V13.01,2013-05-01 04:31:00,
2013-04-30 23:36:00,62.6,49.8,29.86,NNW,342,0.0,0.0,63,0.00,,,0.00,VWS V13.01,2013-05-01 04:36:00,
2013-04-30 23:41:00,62.2,50.7,29.86,NNW,342,0.0,0.0,66,0.00,,,0.00,VWS V13.01,2013-05-01 04:41:00,
2013-04-30 23:46:00,61.7,50.2,29.86,NNW,342,0.0,0.0,66,0.00,,,0.00,VWS V13.01,2013-05-01 04:46:00,
2013-04-30 23:51:00,61.3,50.3,29.86,NNW,342,0.0,0.0,67,0.00,,,0.00,VWS V13.01,2013-05-01 04:51:00,
2013-04-30 23:56:00,61.1,49.3,29.86,NNW,342,0.0,0.0,65,0.00,,,0.00,VWS V13.01,2013-05-01 04:56:00,